Time;durP1;ratioP1;P1;durP2;ratioP2;P2;SDS_P1;SDS_P2;PMS_P1;PMS_P2;Temp;Humidity;BMP_temperature;BMP_pressure;BME280_temperature;BME280_humidity;BME280_pressure;Samples;Min_cycle;Max_cycle;Signal;HPM_P1;HPM_P2
2023/11/04 00:01:17;;;;;;;1.30;0.30;;;8.10;99.90;;;;;;4978826;28;20125;-74
2023/11/04 00:03:44;;;;;;;0.73;0.30;;;8.10;99.90;;;;;;4994206;28;20049;-75
2023/11/04 00:06:11;;;;;;;1.30;0.32;;;8.10;99.90;;;;;;4979006;28;20686;-75
2023/11/04 00:08:39;;;;;;;1.42;0.50;;;8.20;99.90;;;;;;4979103;28;20602;-75
2023/11/04 00:11:06;;;;;;;0.60;0.30;;;8.20;99.90;;;;;;4994918;28;20546;-76
2023/11/04 00:13:33;;;;;;;0.55;0.25;;;8.20;99.90;;;;;;4978196;28;20030;-75
2023/11/04 00:15:59;;;;;;;1.63;0.38;;;8.30;99.90;;;;;;4994840;28;20022;-76
2023/11/04 00:18:27;;;;;;;1.00;0.47;;;8.30;99.90;;;;;;4994380;28;20037;-72
2023/11/04 00:20:54;;;;;;;1.02;0.30;;;8.30;99.90;;;;;;4980954;28;20046;-75
2023/11/04 00:23:24;;;;;;;1.83;0.40;;;8.30;99.90;;;;;;4995754;28;20042;-75
2023/11/04 00:25:50;;;;;;;1.67;0.47;;;8.30;99.90;;;;;;4997025;28;20030;-76
2023/11/04 00:28:19;;;;;;;0.93;0.30;;;8.40;99.90;;;;;;4978403;28;20554;-76
2023/11/04 00:30:54;;;;;;;0.57;0.28;;;8.40;99.90;;;;;;4964062;28;20038;-75
2023/11/04 00:33:41;;;;;;;1.95;0.50;;;8.40;99.90;;;;;;4994123;28;20038;-77
2023/11/04 00:36:27;;;;;;;0.70;0.28;;;8.40;99.90;;;;;;4980397;28;20038;-75
2023/11/04 00:39:14;;;;;;;0.40;0.20;;;8.40;99.90;;;;;;5021483;28;20527;-74
2023/11/04 00:42:00;;;;;;;0.70;0.40;;;8.50;99.90;;;;;;4979429;28;20034;-74
2023/11/04 00:44:48;;;;;;;1.42;0.32;;;8.50;99.90;;;;;;5009868;28;20041;-75
2023/11/04 00:47:36;;;;;;;0.98;0.30;;;8.50;99.90;;;;;;4980887;28;20077;-76
2023/11/04 00:50:22;;;;;;;1.27;0.32;;;8.50;99.90;;;;;;4981276;28;20041;-77
2023/11/04 00:53:08;;;;;;;0.80;0.30;;;8.50;99.90;;;;;;4979728;28;20057;-75
2023/11/04 00:55:54;;;;;;;1.20;0.25;;;8.60;99.90;;;;;;4981119;28;20037;-76
2023/11/04 00:58:41;;;;;;;1.83;0.28;;;8.60;99.90;;;;;;4979669;28;20042;-76
2023/11/04 01:01:27;;;;;;;1.73;0.30;;;8.60;99.90;;;;;;4993883;28;20034;-74
2023/11/04 01:04:13;;;;;;;2.25;0.40;;;8.60;99.90;;;;;;4980871;28;20057;-76
2023/11/04 01:06:59;;;;;;;0.85;0.30;;;8.60;99.90;;;;;;4994787;28;20408;-75
2023/11/04 01:09:45;;;;;;;1.83;0.40;;;8.60;99.90;;;;;;4967764;28;20046;-75
2023/11/04 01:12:32;;;;;;;1.10;0.40;;;8.70;99.90;;;;;;4994291;28;20045;-75
2023/11/04 01:15:18;;;;;;;1.67;0.30;;;8.70;99.90;;;;;;4979799;28;20049;-76
2023/11/04 01:18:04;;;;;;;1.73;0.35;;;8.70;99.90;;;;;;4979966;28;20643;-75
2023/11/04 01:20:50;;;;;;;4.03;0.50;;;8.70;99.90;;;;;;4994159;28;20042;-75
2023/11/04 01:23:37;;;;;;;0.68;0.30;;;8.70;99.90;;;;;;4979244;28;20038;-75
2023/11/04 01:26:23;;;;;;;1.10;0.40;;;8.70;99.90;;;;;;4980731;28;20488;-74
2023/11/04 01:29:11;;;;;;;1.55;0.50;;;8.70;99.90;;;;;;4993660;28;20042;-75
2023/11/04 01:31:57;;;;;;;0.95;0.47;;;8.70;99.90;;;;;;4993229;28;20026;-76
2023/11/04 01:34:44;;;;;;;1.45;0.38;;;8.80;99.90;;;;;;4979373;28;20037;-74
2023/11/04 01:37:31;;;;;;;0.90;0.40;;;8.80;99.90;;;;;;4994665;28;20579;-76
2023/11/04 01:40:17;;;;;;;0.85;0.40;;;8.80;99.90;;;;;;4992162;28;20045;-74
2023/11/04 01:43:03;;;;;;;1.80;0.40;;;8.80;99.90;;;;;;4991856;28;20056;-75
2023/11/04 01:46:00;;;;;;;2.58;0.40;;;8.80;99.90;;;;;;4965214;28;20723;-73
2023/11/04 01:48:47;;;;;;;1.92;0.60;;;8.90;99.90;;;;;;4993052;28;20049;-75
2023/11/04 01:51:34;;;;;;;0.57;0.30;;;8.90;99.90;;;;;;4979281;28;20038;-73
2023/11/04 01:54:22;;;;;;;2.22;0.40;;;8.90;99.90;;;;;;4979679;28;20042;-75
2023/11/04 01:57:08;;;;;;;2.25;0.50;;;8.90;99.90;;;;;;4993207;28;20037;-72
2023/11/04 01:59:54;;;;;;;1.25;0.47;;;8.90;99.90;;;;;;4979774;28;20121;-74
2023/11/04 02:02:42;;;;;;;0.95;0.30;;;9.00;99.90;;;;;;4991987;28;20034;-76
2023/11/04 02:05:28;;;;;;;1.13;0.43;;;9.00;99.90;;;;;;4967702;28;20436;-75
2023/11/04 02:08:14;;;;;;;2.55;0.63;;;9.00;99.90;;;;;;4997355;28;20227;-76
2023/11/04 02:11:02;;;;;;;2.67;0.40;;;9.00;99.90;;;;;;4983279;28;20041;-75
2023/11/04 02:13:48;;;;;;;1.60;0.40;;;9.00;99.90;;;;;;4996870;28;20029;-74
2023/11/04 02:16:35;;;;;;;1.20;0.45;;;9.00;99.90;;;;;;4997857;28;20042;-76
2023/11/04 02:19:21;;;;;;;1.13;0.50;;;9.00;99.90;;;;;;4984491;28;20038;-76
2023/11/04 02:22:08;;;;;;;1.58;0.50;;;9.10;99.90;;;;;;4996335;28;20409;-74
2023/11/04 02:24:55;;;;;;;1.60;0.50;;;9.10;99.90;;;;;;4983676;28;20480;-76
2023/11/04 02:27:45;;;;;;;1.42;0.63;;;9.10;99.90;;;;;;4984118;28;20404;-75
2023/11/04 02:30:31;;;;;;;1.25;0.30;;;9.10;99.90;;;;;;5024638;28;20037;-76
2023/11/04 02:33:18;;;;;;;1.85;0.50;;;9.10;99.90;;;;;;5009044;28;20050;-75
2023/11/04 02:36:04;;;;;;;1.05;0.40;;;9.10;99.90;;;;;;4982588;28;20481;-75
2023/11/04 02:38:51;;;;;;;1.27;0.40;;;9.20;99.90;;;;;;4982462;28;20112;-75
2023/11/04 02:41:37;;;;;;;0.70;0.40;;;9.20;99.90;;;;;;4982576;28;20528;-75
2023/11/04 02:44:23;;;;;;;0.88;0.50;;;9.20;99.90;;;;;;4982187;28;20042;-76
2023/11/04 02:47:10;;;;;;;2.00;0.60;;;9.20;99.90;;;;;;4982313;28;20063;-75
2023/11/04 02:49:56;;;;;;;1.65;0.50;;;9.20;99.90;;;;;;4982000;28;20034;-75
2023/11/04 02:52:42;;;;;;;1.50;0.40;;;9.20;99.90;;;;;;4995070;28;20041;-75
2023/11/04 02:55:29;;;;;;;2.08;0.47;;;9.30;99.90;;;;;;4982835;28;20052;-75
2023/11/04 02:58:15;;;;;;;3.97;0.60;;;9.20;99.90;;;;;;4993178;28;20416;-75
2023/11/04 03:01:01;;;;;;;2.08;0.60;;;9.30;99.90;;;;;;4995607;28;20049;-74
2023/11/04 03:03:47;;;;;;;2.05;0.60;;;9.30;99.90;;;;;;4981653;28;20345;-75
2023/11/04 03:06:34;;;;;;;2.83;0.70;;;9.30;99.90;;;;;;4984118;28;20045;-74
2023/11/04 03:09:20;;;;;;;1.77;0.50;;;9.20;99.90;;;;;;4984174;28;20034;-75
2023/11/04 03:12:07;;;;;;;2.10;0.65;;;9.20;99.90;;;;;;4995023;28;20037;-73
2023/11/04 03:14:53;;;;;;;1.80;0.60;;;9.10;99.90;;;;;;4982799;28;20034;-74
2023/11/04 03:17:39;;;;;;;1.33;0.60;;;9.10;99.90;;;;;;4994876;28;20377;-73
2023/11/04 03:20:25;;;;;;;2.03;0.50;;;9.00;99.90;;;;;;4981937;28;20485;-72
2023/11/04 03:23:11;;;;;;;2.92;0.50;;;9.00;99.90;;;;;;4980984;28;20505;-73
2023/11/04 03:25:57;;;;;;;1.95;0.60;;;9.00;99.90;;;;;;4996526;28;20030;-73
2023/11/04 03:28:44;;;;;;;1.15;0.60;;;9.00;99.90;;;;;;4982821;28;20045;-74
2023/11/04 03:31:30;;;;;;;3.47;1.02;;;9.00;99.90;;;;;;4982718;28;20030;-75
2023/11/04 03:34:17;;;;;;;2.35;0.80;;;9.00;99.90;;;;;;4981838;28;20045;-74
2023/11/04 03:37:03;;;;;;;2.55;0.90;;;9.00;99.90;;;;;;4983103;28;20477;-73
2023/11/04 03:39:50;;;;;;;2.45;0.80;;;9.00;99.90;;;;;;4993987;28;21097;-75
2023/11/04 03:42:37;;;;;;;3.30;0.88;;;9.00;99.90;;;;;;4967221;28;20779;-75
2023/11/04 03:45:25;;;;;;;2.30;1.23;;;9.00;99.90;;;;;;4980207;28;20034;-75
2023/11/04 03:48:11;;;;;;;2.70;0.80;;;9.00;99.90;;;;;;4994314;28;20049;-75
2023/11/04 03:50:57;;;;;;;2.55;0.88;;;9.00;99.90;;;;;;4980903;28;20038;-75
2023/11/04 03:53:43;;;;;;;3.38;0.70;;;9.00;99.90;;;;;;4993120;28;20133;-75
2023/11/04 03:56:30;;;;;;;1.67;0.70;;;9.00;99.90;;;;;;4980752;28;20053;-75
2023/11/04 03:59:16;;;;;;;3.03;0.80;;;9.00;99.90;;;;;;4993932;28;20049;-75
2023/11/04 04:02:02;;;;;;;1.75;0.80;;;9.00;99.90;;;;;;4980197;28;20038;-74
2023/11/04 04:04:48;;;;;;;3.80;0.90;;;9.10;99.90;;;;;;4994437;28;20069;-74
2023/11/04 04:07:35;;;;;;;2.55;0.77;;;9.10;99.90;;;;;;4980901;28;20064;-75
2023/11/04 04:10:21;;;;;;;2.42;0.60;;;9.10;99.90;;;;;;4980308;28;20389;-75
2023/11/04 04:13:08;;;;;;;1.58;0.60;;;9.10;99.90;;;;;;4979636;28;20030;-74
2023/11/04 04:15:54;;;;;;;2.65;0.80;;;9.10;99.90;;;;;;4993945;28;20370;-74
2023/11/04 04:18:40;;;;;;;3.38;0.82;;;9.10;99.90;;;;;;4995047;28;20404;-74
2023/11/04 04:21:26;;;;;;;4.03;0.80;;;9.10;99.90;;;;;;4994383;28;20025;-74
2023/11/04 04:24:13;;;;;;;2.60;1.15;;;9.10;99.90;;;;;;5006763;28;20496;-73
2023/11/04 04:26:59;;;;;;;1.15;0.60;;;9.20;99.90;;;;;;4994185;28;20042;-73
2023/11/04 04:29:45;;;;;;;2.65;1.10;;;9.20;99.90;;;;;;4993401;28;20050;-73
2023/11/04 04:32:32;;;;;;;4.18;1.02;;;9.20;99.90;;;;;;4992975;28;20038;-73
2023/11/04 04:35:19;;;;;;;1.98;0.90;;;9.20;99.90;;;;;;4980593;28;20507;-73
2023/11/04 04:38:05;;;;;;;2.30;0.90;;;9.20;99.90;;;;;;4993154;28;20598;-73
2023/11/04 04:40:51;;;;;;;2.90;0.93;;;9.20;99.90;;;;;;4979724;28;20046;-73
2023/11/04 04:43:37;;;;;;;3.67;1.27;;;9.20;99.90;;;;;;4979415;28;20041;-73
2023/11/04 04:46:24;;;;;;;1.77;0.80;;;9.20;99.90;;;;;;5004661;28;20038;-74
2023/11/04 04:49:10;;;;;;;2.28;1.00;;;9.20;99.90;;;;;;4992334;28;20304;-74
2023/11/04 04:51:56;;;;;;;2.40;0.90;;;9.10;99.90;;;;;;5002107;28;21159;-73
2023/11/04 04:54:43;;;;;;;2.92;0.93;;;9.10;99.90;;;;;;4994385;28;20098;-75
2023/11/04 04:57:30;;;;;;;2.95;0.70;;;9.10;99.90;;;;;;4979257;28;20041;-74
2023/11/04 05:00:17;;;;;;;2.15;1.00;;;9.10;99.90;;;;;;4979888;28;20057;-75
2023/11/04 05:03:05;;;;;;;2.85;1.35;;;9.10;99.90;;;;;;5020872;28;20903;-73
2023/11/04 05:05:51;;;;;;;2.30;1.02;;;9.10;99.90;;;;;;4993330;28;21658;-73
2023/11/04 05:08:37;;;;;;;2.88;1.42;;;9.10;99.90;;;;;;4992836;28;20693;-75
2023/11/04 05:11:24;;;;;;;1.33;0.95;;;9.00;99.90;;;;;;4977748;28;20042;-74
2023/11/04 05:14:10;;;;;;;2.25;1.35;;;9.00;99.90;;;;;;4992912;28;20045;-74
2023/11/04 05:16:56;;;;;;;1.98;1.23;;;9.10;99.90;;;;;;5006689;28;20038;-74
2023/11/04 05:19:42;;;;;;;1.92;1.10;;;9.10;99.90;;;;;;4978885;28;20049;-73
2023/11/04 05:22:28;;;;;;;4.65;1.33;;;9.10;99.90;;;;;;4979751;28;20585;-74
2023/11/04 05:25:15;;;;;;;2.22;1.20;;;9.10;99.90;;;;;;4979603;28;20046;-74
2023/11/04 05:28:02;;;;;;;3.33;1.17;;;9.10;99.90;;;;;;4993182;28;20030;-74
2023/11/04 05:30:48;;;;;;;3.53;1.35;;;9.20;99.90;;;;;;4978529;28;20424;-74
2023/11/04 05:33:34;;;;;;;2.55;1.15;;;9.20;99.90;;;;;;4993312;28;20045;-75
2023/11/04 05:36:21;;;;;;;2.15;0.88;;;9.20;99.90;;;;;;4995024;28;20531;-76
2023/11/04 05:39:07;;;;;;;3.50;0.80;;;9.20;99.90;;;;;;4979337;28;20030;-73
2023/11/04 05:41:53;;;;;;;2.90;1.10;;;9.20;99.90;;;;;;5008464;28;20045;-74
2023/11/04 05:44:39;;;;;;;2.83;1.08;;;9.20;99.90;;;;;;4980881;28;20073;-74
2023/11/04 05:47:26;;;;;;;2.97;0.98;;;9.20;99.90;;;;;;4995001;28;20049;-74
2023/11/04 05:50:12;;;;;;;2.65;1.05;;;9.30;99.90;;;;;;4981526;28;20022;-74
2023/11/04 05:52:59;;;;;;;3.03;0.85;;;9.30;99.90;;;;;;5007354;28;20072;-74
2023/11/04 05:55:46;;;;;;;2.60;1.17;;;9.30;99.90;;;;;;4981577;28;20358;-74
2023/11/04 05:58:33;;;;;;;3.03;1.00;;;9.30;99.90;;;;;;4981274;28;20049;-74
2023/11/04 06:01:23;;;;;;;4.70;1.73;;;9.30;99.90;;;;;;4993977;28;20041;-74
2023/11/04 06:04:10;;;;;;;2.88;1.20;;;9.30;99.90;;;;;;4995490;28;20053;-74
2023/11/04 06:06:56;;;;;;;2.33;1.00;;;9.30;99.90;;;;;;4981941;28;20038;-75
2023/11/04 06:09:43;;;;;;;3.40;0.88;;;9.30;99.90;;;;;;4994761;28;20042;-75
2023/11/04 06:12:29;;;;;;;3.42;1.42;;;9.30;99.90;;;;;;4994095;28;20030;-75
2023/11/04 06:15:15;;;;;;;3.13;1.13;;;9.30;99.90;;;;;;5010081;28;20420;-75
2023/11/04 06:18:01;;;;;;;3.72;1.17;;;9.30;99.90;;;;;;4995428;28;20030;-75
2023/11/04 06:20:48;;;;;;;3.83;1.42;;;9.30;99.90;;;;;;5007512;28;20451;-74
2023/11/04 06:23:34;;;;;;;4.93;1.55;;;9.40;99.90;;;;;;4980410;28;20405;-75
2023/11/04 06:26:22;;;;;;;3.08;1.05;;;9.40;99.90;;;;;;4982252;28;20508;-75
2023/11/04 06:29:08;;;;;;;5.50;1.40;;;9.40;99.90;;;;;;4981765;28;20038;-74
2023/11/04 06:31:55;;;;;;;2.22;1.17;;;9.40;99.90;;;;;;4981709;28;20326;-75
2023/11/04 06:34:41;;;;;;;2.78;1.05;;;9.40;99.90;;;;;;4980787;28;20038;-74
2023/11/04 06:37:27;;;;;;;3.08;1.38;;;9.40;99.90;;;;;;4994717;28;20049;-74
2023/11/04 06:40:14;;;;;;;4.03;1.55;;;9.40;99.90;;;;;;4995471;28;20038;-75
2023/11/04 06:43:00;;;;;;;4.68;1.33;;;9.40;99.90;;;;;;4996377;28;20528;-75
2023/11/04 06:45:46;;;;;;;2.95;1.23;;;9.40;99.90;;;;;;4994619;28;20987;-74
2023/11/04 06:48:33;;;;;;;2.67;0.77;;;9.40;99.90;;;;;;4981541;28;20037;-75
2023/11/04 06:51:19;;;;;;;3.60;1.30;;;9.40;99.90;;;;;;4993801;28;20042;-76
2023/11/04 06:53:46;;;;;;;4.68;1.35;;;9.40;99.90;;;;;;4981733;28;20044;-75
2023/11/04 06:56:13;;;;;;;5.47;1.23;;;9.40;99.90;;;;;;4999406;28;20507;-75
2023/11/04 06:58:40;;;;;;;5.65;1.33;;;9.40;99.90;;;;;;4997541;28;20049;-74
2023/11/04 07:01:07;;;;;;;4.47;1.55;;;9.40;99.90;;;;;;4998904;28;20052;-75
2023/11/04 07:03:34;;;;;;;3.30;0.90;;;9.50;99.90;;;;;;4997514;28;20038;-74
2023/11/04 07:06:01;;;;;;;4.47;1.45;;;9.40;99.90;;;;;;4998063;28;20034;-74
2023/11/04 07:08:27;;;;;;;4.72;1.42;;;9.40;99.90;;;;;;4984568;28;22864;-74
2023/11/04 07:10:53;;;;;;;2.63;0.90;;;9.40;99.90;;;;;;4997567;28;20052;-75
2023/11/04 07:13:20;;;;;;;4.20;1.30;;;9.50;99.90;;;;;;4999711;28;20385;-74
2023/11/04 07:15:47;;;;;;;1.52;0.82;;;9.50;99.90;;;;;;5000174;28;20038;-74
2023/11/04 07:18:14;;;;;;;3.45;0.82;;;9.50;99.90;;;;;;5030027;28;20038;-73
2023/11/04 07:20:41;;;;;;;3.58;1.23;;;9.50;99.90;;;;;;4999119;28;20473;-74
2023/11/04 07:23:07;;;;;;;4.20;1.10;;;9.50;99.90;;;;;;4995901;28;20040;-74
2023/11/04 07:25:38;;;;;;;4.00;1.00;;;9.50;99.90;;;;;;4997572;28;20030;-73
2023/11/04 07:28:04;;;;;;;4.55;0.80;;;9.50;99.90;;;;;;4996873;28;20480;-75
2023/11/04 07:30:31;;;;;;;2.55;1.00;;;9.50;99.90;;;;;;4997022;28;20041;-74
2023/11/04 07:32:57;;;;;;;2.65;0.70;;;9.50;99.90;;;;;;4979719;28;20511;-74
2023/11/04 07:35:23;;;;;;;3.72;1.00;;;9.50;99.90;;;;;;4982355;28;20053;-75
2023/11/04 07:37:50;;;;;;;3.78;1.50;;;9.50;99.90;;;;;;4981750;28;20034;-75
2023/11/04 07:40:17;;;;;;;5.20;1.30;;;9.60;99.90;;;;;;4980899;28;20049;-74
2023/11/04 07:42:44;;;;;;;4.28;1.35;;;9.50;99.90;;;;;;4998556;28;20037;-75
2023/11/04 07:45:11;;;;;;;2.67;1.00;;;9.50;99.90;;;;;;4998378;28;20030;-75
2023/11/04 07:47:39;;;;;;;2.75;0.80;;;9.50;99.90;;;;;;4981418;28;20034;-75
2023/11/04 07:50:07;;;;;;;3.83;1.00;;;9.40;99.90;;;;;;4996083;28;20033;-76
2023/11/04 07:52:34;;;;;;;3.05;0.60;;;9.40;99.90;;;;;;4996100;28;20041;-75
2023/11/04 07:55:00;;;;;;;4.45;1.23;;;9.40;99.90;;;;;;4998020;28;20033;-74
2023/11/04 07:57:26;;;;;;;2.47;0.80;;;9.40;99.90;;;;;;4998092;28;20037;-75
2023/11/04 07:59:53;;;;;;;3.17;0.90;;;9.40;99.90;;;;;;4997258;28;20043;-76
2023/11/04 08:02:19;;;;;;;3.85;1.00;;;9.40;99.90;;;;;;4996812;28;20041;-76
2023/11/04 08:04:45;;;;;;;3.40;0.70;;;9.40;99.90;;;;;;4980655;28;20408;-75
2023/11/04 08:07:12;;;;;;;3.63;0.70;;;9.50;99.90;;;;;;4996580;28;20033;-75
2023/11/04 08:09:41;;;;;;;2.70;0.95;;;9.50;99.90;;;;;;4996843;28;20085;-76
2023/11/04 08:12:07;;;;;;;5.20;0.80;;;9.60;99.90;;;;;;5029284;28;20148;-74
2023/11/04 08:14:33;;;;;;;3.40;1.23;;;9.60;99.90;;;;;;4982051;28;20104;-74
2023/11/04 08:17:00;;;;;;;3.17;1.10;;;9.70;99.90;;;;;;4998922;28;20034;-75
2023/11/04 08:19:26;;;;;;;3.97;0.85;;;9.70;99.90;;;;;;4980644;28;20432;-75
2023/11/04 08:21:52;;;;;;;3.53;0.70;;;9.70;99.90;;;;;;4997732;28;20030;-75
2023/11/04 08:24:18;;;;;;;5.05;0.88;;;9.70;99.90;;;;;;4980539;28;20523;-76
2023/11/04 08:26:45;;;;;;;2.80;0.60;;;9.80;99.90;;;;;;4993727;28;20462;-74
2023/11/04 08:29:11;;;;;;;2.78;0.80;;;9.90;99.90;;;;;;4996263;28;20068;-76
2023/11/04 08:31:37;;;;;;;2.05;0.75;;;10.00;99.90;;;;;;4997011;28;20029;-73
2023/11/04 08:34:04;;;;;;;2.92;0.80;;;10.10;99.90;;;;;;4995897;28;20034;-75
2023/11/04 08:36:30;;;;;;;3.75;0.90;;;10.10;99.90;;;;;;4997616;28;20539;-74
2023/11/04 08:38:57;;;;;;;2.13;0.90;;;10.10;99.90;;;;;;4997566;28;20033;-75
2023/11/04 08:41:23;;;;;;;1.70;0.60;;;10.20;99.90;;;;;;4995527;28;20025;-75
2023/11/04 08:43:50;;;;;;;2.95;0.85;;;10.20;99.90;;;;;;4996324;28;20480;-75
2023/11/04 08:46:18;;;;;;;2.80;0.60;;;10.20;99.90;;;;;;4996487;28;20034;-75
2023/11/04 08:48:45;;;;;;;3.90;0.95;;;10.30;99.90;;;;;;4980561;28;20128;-76
2023/11/04 08:51:12;;;;;;;2.42;0.60;;;10.30;99.90;;;;;;4980492;28;20041;-76
2023/11/04 08:53:38;;;;;;;1.25;0.50;;;10.40;99.90;;;;;;4963245;28;20034;-73
2023/11/04 08:56:08;;;;;;;2.13;0.60;;;10.40;99.90;;;;;;5014238;28;20038;-75
2023/11/04 08:58:35;;;;;;;3.38;0.88;;;10.50;99.90;;;;;;4978809;28;20038;-76
2023/11/04 09:01:02;;;;;;;4.55;0.77;;;10.50;99.90;;;;;;4980221;28;21107;-74
2023/11/04 09:03:28;;;;;;;6.18;0.82;;;10.50;99.90;;;;;;4980693;28;20030;-75
2023/11/04 09:05:55;;;;;;;2.72;0.50;;;10.50;99.90;;;;;;4980629;28;20042;-74
2023/11/04 09:08:21;;;;;;;1.70;0.50;;;10.50;99.90;;;;;;4997286;28;20374;-74
2023/11/04 09:10:48;;;;;;;1.77;0.63;;;10.50;99.90;;;;;;4996388;28;20033;-74
2023/11/04 09:13:14;;;;;;;2.70;0.50;;;10.60;99.90;;;;;;4980783;28;20042;-75
2023/11/04 09:15:40;;;;;;;2.72;0.50;;;10.60;99.90;;;;;;4997119;28;20439;-76
2023/11/04 09:18:07;;;;;;;3.47;1.27;;;10.60;99.90;;;;;;5012906;28;20396;-75
2023/11/04 09:20:34;;;;;;;2.08;0.40;;;10.70;99.90;;;;;;4996707;28;20050;-76
2023/11/04 09:23:01;;;;;;;1.13;0.40;;;10.80;99.90;;;;;;4996078;28;20038;-74
2023/11/04 09:25:28;;;;;;;0.88;0.50;;;10.80;99.90;;;;;;4996996;28;20038;-76
2023/11/04 09:27:54;;;;;;;1.42;0.45;;;10.90;99.90;;;;;;4996627;28;20496;-76
2023/11/04 09:30:22;;;;;;;1.60;0.40;;;10.90;99.90;;;;;;4993148;28;20034;-74
2023/11/04 09:32:48;;;;;;;2.17;0.57;;;11.00;99.90;;;;;;5011410;28;20460;-76
2023/11/04 09:35:15;;;;;;;2.20;0.50;;;11.10;99.90;;;;;;4997940;28;20030;-77
2023/11/04 09:37:43;;;;;;;1.30;0.30;;;11.20;99.90;;;;;;4978215;28;20039;-75
2023/11/04 09:40:10;;;;;;;1.15;0.45;;;11.20;99.90;;;;;;4963280;28;20042;-76
2023/11/04 09:42:36;;;;;;;1.40;0.70;;;11.30;99.90;;;;;;4978079;28;20052;-73
2023/11/04 09:45:04;;;;;;;2.30;0.50;;;11.40;99.90;;;;;;4996004;28;20033;-75
2023/11/04 09:47:31;;;;;;;2.15;0.50;;;11.60;99.90;;;;;;5026902;28;20034;-74
2023/11/04 09:50:00;;;;;;;1.48;0.50;;;11.70;99.90;;;;;;4993804;28;20030;-75
2023/11/04 09:52:28;;;;;;;1.90;0.52;;;11.90;99.90;;;;;;4996169;28;20030;-76
2023/11/04 09:54:57;;;;;;;2.72;0.45;;;12.00;99.90;;;;;;4978568;28;20026;-75
2023/11/04 09:57:24;;;;;;;1.00;0.30;;;12.10;99.90;;;;;;4994008;28;20030;-75
2023/11/04 09:59:51;;;;;;;1.75;0.32;;;12.10;99.90;;;;;;4994428;28;20520;-75
2023/11/04 10:02:17;;;;;;;1.52;0.30;;;12.20;99.90;;;;;;4964620;28;20045;-74
2023/11/04 10:04:43;;;;;;;0.98;0.20;;;12.20;99.90;;;;;;4994317;28;20485;-75
2023/11/04 10:07:10;;;;;;;0.82;0.20;;;12.10;99.90;;;;;;4997890;28;20114;-76
2023/11/04 10:09:37;;;;;;;2.80;0.40;;;12.10;99.90;;;;;;4977991;28;20045;-76
2023/11/04 10:12:03;;;;;;;1.95;0.40;;;11.90;99.90;;;;;;4995622;28;20380;-75
2023/11/04 10:14:31;;;;;;;1.45;0.40;;;11.80;99.90;;;;;;4996062;28;20026;-75
2023/11/04 10:16:57;;;;;;;1.02;0.20;;;11.80;99.90;;;;;;4979628;28;20049;-75
2023/11/04 10:19:23;;;;;;;2.03;0.30;;;11.70;99.90;;;;;;4995980;28;20037;-75
2023/11/04 10:21:51;;;;;;;1.50;0.38;;;11.70;99.90;;;;;;4994514;28;20060;-75
2023/11/04 10:24:17;;;;;;;1.42;0.40;;;11.70;99.90;;;;;;4977816;28;20813;-75
2023/11/04 10:26:43;;;;;;;1.83;0.30;;;11.70;99.90;;;;;;4997983;28;20041;-75
2023/11/04 10:29:10;;;;;;;0.60;0.20;;;11.70;99.90;;;;;;4998624;28;20022;-75
2023/11/04 10:31:36;;;;;;;1.40;0.40;;;11.70;99.90;;;;;;4986199;28;20037;-75
2023/11/04 10:34:04;;;;;;;1.95;0.30;;;11.80;99.90;;;;;;4999204;28;20056;-75
2023/11/04 10:36:34;;;;;;;1.15;0.30;;;11.80;99.90;;;;;;4969743;28;20033;-76
2023/11/04 10:39:03;;;;;;;1.60;0.30;;;11.80;99.90;;;;;;4997980;28;20105;-75
2023/11/04 10:41:41;;;;;;;1.65;0.30;;;11.80;99.90;;;;;;4982273;28;20026;-75
2023/11/04 10:44:18;;;;;;;1.42;0.30;;;11.80;99.90;;;;;;5011237;28;20077;-74
2023/11/04 10:47:03;;;;;;;0.77;0.20;;;11.80;99.90;;;;;;5028458;28;20045;-73
2023/11/04 10:49:38;;;;;;;1.73;0.40;;;11.80;99.90;;;;;;4999110;28;20041;-73
2023/11/04 10:52:13;;;;;;;1.55;0.80;;;11.80;99.90;;;;;;5013439;28;20038;-73
2023/11/04 10:54:47;;;;;;;1.00;0.30;;;11.80;99.90;;;;;;4997941;28;20048;-74
2023/11/04 10:57:30;;;;;;;1.30;0.30;;;11.80;99.90;;;;;;4982413;28;20042;-73
2023/11/04 11:00:07;;;;;;;1.98;0.30;;;11.80;99.90;;;;;;5013647;28;20046;-74
2023/11/04 11:02:36;;;;;;;1.45;0.30;;;11.70;99.90;;;;;;4996105;28;20034;-73
2023/11/04 11:05:04;;;;;;;1.00;0.20;;;11.70;99.90;;;;;;4995113;28;20052;-73
2023/11/04 11:07:30;;;;;;;1.45;0.30;;;11.70;99.90;;;;;;5030081;28;20033;-73
2023/11/04 11:09:57;;;;;;;1.25;0.30;;;11.60;99.90;;;;;;4999041;28;20041;-73
2023/11/04 11:12:25;;;;;;;1.65;0.30;;;11.60;99.90;;;;;;4998842;28;20037;-74
2023/11/04 11:14:53;;;;;;;1.33;0.30;;;11.50;99.90;;;;;;4997094;28;20045;-74
2023/11/04 11:17:30;;;;;;;0.63;0.22;;;11.50;99.90;;;;;;4984492;28;20420;-74
2023/11/04 11:19:56;;;;;;;2.15;0.40;;;11.60;99.90;;;;;;4997884;28;20492;-73
2023/11/04 11:22:24;;;;;;;1.13;0.20;;;11.50;99.90;;;;;;4997232;28;20038;-73
2023/11/04 11:24:53;;;;;;;0.80;0.25;;;11.50;99.90;;;;;;4965637;28;20045;-73
2023/11/04 11:27:20;;;;;;;1.23;0.20;;;11.50;99.90;;;;;;4997524;28;20041;-74
2023/11/04 11:29:47;;;;;;;0.93;0.30;;;11.50;99.90;;;;;;4996688;28;20040;-73
2023/11/04 11:32:15;;;;;;;1.02;0.25;;;11.50;99.90;;;;;;4997304;28;20041;-74
2023/11/04 11:34:55;;;;;;;1.75;0.40;;;11.50;99.90;;;;;;4996579;28;20040;-73
2023/11/04 11:37:23;;;;;;;1.48;0.30;;;11.50;99.90;;;;;;4996732;28;20037;-74
2023/11/04 11:39:50;;;;;;;1.50;0.30;;;11.50;99.90;;;;;;4995992;28;20041;-74
2023/11/04 11:42:24;;;;;;;0.60;0.40;;;11.50;99.90;;;;;;4997403;28;20026;-73
2023/11/04 11:44:51;;;;;;;2.00;0.50;;;11.50;99.90;;;;;;4998686;28;20029;-74
2023/11/04 11:47:18;;;;;;;0.70;0.28;;;11.50;99.90;;;;;;4981180;28;20034;-75
2023/11/04 11:49:44;;;;;;;0.85;0.40;;;11.50;99.90;;;;;;4997548;28;20040;-73
2023/11/04 11:52:10;;;;;;;2.30;0.50;;;11.40;99.90;;;;;;4997983;28;20061;-73
2023/11/04 11:54:39;;;;;;;1.45;0.50;;;11.40;99.90;;;;;;4967190;28;20033;-74
2023/11/04 11:57:05;;;;;;;1.63;0.40;;;11.40;99.90;;;;;;4998276;28;20420;-73
2023/11/04 11:59:35;;;;;;;1.35;0.50;;;11.30;99.90;;;;;;5013010;28;20997;-73
2023/11/04 12:02:02;;;;;;;1.23;0.50;;;11.30;99.90;;;;;;4979811;28;20056;-73
2023/11/04 12:04:28;;;;;;;1.77;0.50;;;11.20;99.90;;;;;;4980694;28;20042;-73
2023/11/04 12:06:55;;;;;;;1.60;0.73;;;11.20;99.90;;;;;;4979538;28;20037;-73
2023/11/04 12:09:24;;;;;;;2.17;0.70;;;11.10;99.90;;;;;;4980672;28;20034;-74
2023/11/04 12:11:51;;;;;;;1.75;0.50;;;10.90;99.90;;;;;;4995610;28;20059;-73
2023/11/04 12:14:18;;;;;;;1.73;0.30;;;10.90;99.90;;;;;;4979939;28;20033;-71
2023/11/04 12:16:46;;;;;;;2.28;0.40;;;10.80;99.90;;;;;;4996461;28;20473;-72
2023/11/04 12:19:13;;;;;;;2.00;0.60;;;10.70;99.90;;;;;;4996861;28;20037;-72
2023/11/04 12:21:40;;;;;;;1.30;0.45;;;10.60;99.90;;;;;;4997357;28;20430;-72
2023/11/04 12:24:07;;;;;;;2.60;0.40;;;10.60;99.90;;;;;;4997315;28;20388;-71
2023/11/04 12:26:33;;;;;;;1.02;0.25;;;10.60;99.90;;;;;;4996454;28;20485;-72
2023/11/04 12:29:00;;;;;;;2.47;0.47;;;10.50;99.90;;;;;;4996900;28;20373;-72
2023/11/04 12:31:30;;;;;;;1.60;0.40;;;10.50;99.90;;;;;;4981873;28;20030;-72
2023/11/04 12:33:56;;;;;;;1.50;0.30;;;10.50;99.90;;;;;;4995227;28;20044;-72
2023/11/04 12:36:23;;;;;;;3.05;0.30;;;10.60;99.90;;;;;;4981374;28;20041;-72
2023/11/04 12:38:49;;;;;;;1.20;0.38;;;10.60;99.90;;;;;;4979391;28;20030;-70
2023/11/04 12:41:18;;;;;;;1.45;0.30;;;10.60;99.90;;;;;;4968394;28;20057;-71
2023/11/04 12:43:45;;;;;;;4.20;0.40;;;10.50;99.90;;;;;;4980240;28;20038;-71
2023/11/04 12:46:11;;;;;;;2.80;0.57;;;10.50;99.90;;;;;;4980211;28;20038;-72
2023/11/04 12:48:37;;;;;;;2.05;0.70;;;10.40;99.90;;;;;;4997725;28;20045;-72
2023/11/04 12:51:04;;;;;;;3.03;0.40;;;10.30;99.90;;;;;;4978966;28;20040;-72
2023/11/04 12:53:33;;;;;;;1.38;0.50;;;10.30;99.90;;;;;;4995923;28;20034;-72
2023/11/04 12:56:00;;;;;;;4.72;0.68;;;10.30;99.90;;;;;;4995246;28;20713;-71
2023/11/04 12:58:26;;;;;;;2.45;0.60;;;10.30;99.90;;;;;;4996958;28;20041;-72
2023/11/04 13:00:52;;;;;;;2.17;0.50;;;10.20;99.90;;;;;;4979641;28;20042;-72
2023/11/04 13:03:19;;;;;;;1.40;0.40;;;10.20;99.90;;;;;;4979465;28;20030;-72
2023/11/04 13:05:45;;;;;;;1.92;0.40;;;10.20;99.90;;;;;;4994962;28;20053;-71
2023/11/04 13:08:12;;;;;;;3.08;0.70;;;10.10;99.90;;;;;;5026804;28;20030;-72
2023/11/04 13:10:38;;;;;;;2.10;0.50;;;10.00;99.90;;;;;;4977698;28;20205;-72
2023/11/04 13:13:05;;;;;;;3.45;0.57;;;10.00;99.90;;;;;;5008360;28;20050;-71
2023/11/04 13:15:31;;;;;;;3.50;0.80;;;10.00;99.90;;;;;;4994689;28;20041;-72
2023/11/04 13:17:58;;;;;;;3.10;0.70;;;10.00;99.90;;;;;;4996108;28;20037;-72
2023/11/04 13:20:24;;;;;;;3.20;0.60;;;9.90;99.90;;;;;;4995541;28;20489;-72
2023/11/04 13:22:51;;;;;;;3.03;0.50;;;9.90;99.90;;;;;;4994142;28;20037;-72
2023/11/04 13:25:17;;;;;;;3.85;0.50;;;9.80;99.90;;;;;;4977924;28;20459;-71
2023/11/04 13:27:43;;;;;;;3.25;0.57;;;9.80;99.90;;;;;;4993452;28;20045;-72
2023/11/04 13:30:13;;;;;;;5.22;0.80;;;9.70;99.90;;;;;;4994497;28;20368;-72
2023/11/04 13:32:41;;;;;;;3.85;0.60;;;9.70;99.90;;;;;;4976945;28;21079;-72
2023/11/04 13:35:08;;;;;;;5.30;0.90;;;9.70;99.90;;;;;;4979532;28;20055;-72
2023/11/04 13:37:34;;;;;;;3.70;0.88;;;9.60;99.90;;;;;;4994936;28;20041;-72